सभी
Wyalkatchem Airport (Wyalkatchem, Western Australia) YWKM मौसम
There is no TAF data available at YWKM. Showing TAF data for YCUN (30 mi S).
YCUN Terminal Area Forecast (no data for YWKM)
| Date | Time (AWST) | Flight Rules | Wind Dir. | Speed | Type | Height AGL (ft) | Visibility | Remarks | ||||||
|---|---|---|---|---|---|---|---|---|---|---|---|---|---|---|
There is no METAR data available at YWKM. Showing METAR data for YCUN (30 mi S).
Recent YCUN METAR history (no data for YWKM)
| Date | Time (AWST) | Flight Rules | Wind Dir. | Speed | Type | Height AGL (ft) | Visibility | Temp (°C) | Temp (°F) | Dew Point (°C) | Dew Point (°F) | Rel. Humid. | Pressure | Density Altitude | Remarks |
|---|---|---|---|---|---|---|---|---|---|---|---|---|---|---|---|
| 06-मई | 03:00 | VFR | 110° | 8 kt | 10000 meters | 11° | 51° | 8° | 46° | 82% | 1028 mb | -218 ft | |||
| 06-मई | 02:00 | VFR | 100° | 7 kt | 10000 meters | 12° | 53° | 8° | 46° | 76% | 1028 mb | -98 ft | |||
| 06-मई | 01:00 | VFR | 110° | 8 kt | 10000 meters | 13° | 55° | 8° | 46° | 72% | 1027 mb | 52 ft | |||
| 06-मई | 00:00 | VFR | 120° | 7 kt | 10000 meters | 13° | 55° | 8° | 46° | 72% | 1027 mb | 52 ft | |||
| 05-मई | 23:00 | VFR | 90° | 5 kt | 10000 meters | 10° | 50° | 7° | 44° | 82% | 1027 mb | -308 ft | |||
| 05-मई | 22:00 | VFR | 80° | 5 kt | 10000 meters | 10° | 50° | 7° | 44° | 82% | 1027 mb | -308 ft | |||
| 05-मई | 21:00 | VFR | 100° | 5 kt | 10000 meters | 11° | 51° | 7° | 44° | 76% | 1027 mb | -188 ft | |||
| 05-मई | 20:00 | VFR | 140° | 6 kt | 10000 meters | 16° | 60° | 8° | 46° | 59% | 1026 mb | 441 ft | |||
| 05-मई | 19:00 | VFR | 150° | 6 kt | 10000 meters | 16° | 60° | 7° | 44° | 55% | 1026 mb | 441 ft | |||
| 05-मई | 18:00 | VFR | 130° | 5 kt | 10000 meters | 18° | 64° | 7° | 44° | 49% | 1026 mb | 681 ft | |||
| 05-मई | 17:00 | VFR | 130° | 7 kt | 10000 meters | 21° | 69° | 7° | 44° | 40% | 1025 mb | 1,071 ft | |||
| 05-मई | 16:00 | VFR | 150° | 7 kt | 10000 meters | 22° | 71° | 7° | 44° | 38% | 1025 mb | 1,191 ft | |||
| 05-मई | 15:00 | VFR | 100° | 4 kt | 10000 meters | 22° | 71° | 7° | 44° | 38% | 1025 mb | 1,191 ft | |||
| 05-मई | 14:00 | VFR | 80° | 5 kt | 10000 meters | 22° | 71° | 8° | 46° | 41% | 1025 mb | 1,191 ft | |||
| 05-मई | 13:00 | VFR | 50° | 5 kt | 10000 meters | 21° | 69° | 8° | 46° | 43% | 1025 mb | 1,071 ft | |||
| 05-मई | 12:00 | VFR | 90° | 7 kt | 10000 meters | 20° | 68° | 8° | 46° | 46% | 1026 mb | 921 ft | |||
| 05-मई | 11:00 | VFR | 50° | 6 kt | 10000 meters | 19° | 66° | 9° | 48° | 52% | 1027 mb | 772 ft | |||
| 05-मई | 10:00 | VFR | 40° | 7 kt | 10000 meters | 17° | 62° | 10° | 50° | 63% | 1028 mb | 502 ft | |||
| 05-मई | 09:00 | VFR | 80° | 8 kt | 10000 meters | 13° | 55° | 9° | 48° | 77% | 1028 mb | 22 ft | |||
| 05-मई | 08:00 | VFR | 90° | 6 kt | 10000 meters | 11° | 51° | 8° | 46° | 82% | 1027 mb | -188 ft | |||
| 05-मई | 07:00 | VFR | 80° | 4 kt | 10000 meters | 7° | 44° | 6° | 42° | 93% | 1027 mb | -668 ft | |||
| 05-मई | 06:00 | VFR | 80° | 7 kt | 10000 meters | 8° | 46° | 7° | 44° | 93% | 1026 mb | -519 ft | |||
| 05-मई | 05:00 | VFR | 90° | 5 kt | 10000 meters | 9° | 48° | 8° | 46° | 93% | 1026 mb | -399 ft | |||
| 05-मई | 04:00 | VFR | 120° | 7 kt | 10000 meters | 10° | 50° | 8° | 46° | 87% | 1026 mb | -279 ft |
लॉगिन
| Your browser is unsupported. अपना ब्राऊजर अपग्रेड करें |
